createdAt,value
2022-10-18T08:05:27.947Z,19.38
2022-10-18T08:08:01.952Z,19.00
2022-10-18T08:10:37.223Z,21.23
2022-10-18T08:13:07.173Z,22.00
2022-10-18T08:15:39.248Z,19.50
2022-10-18T08:18:11.155Z,21.58
2022-10-18T08:20:45.651Z,21.42
2022-10-18T08:23:22.024Z,21.27
2022-10-18T08:25:52.629Z,20.08
2022-10-18T08:28:37.846Z,20.10
2022-10-18T08:31:17.455Z,19.77
2022-10-18T08:33:46.633Z,18.67
2022-10-18T08:36:18.519Z,13.35
2022-10-18T08:38:49.442Z,14.13
2022-10-18T08:41:53.495Z,14.90
2022-10-18T08:44:27.585Z,13.15
2022-10-18T08:47:05.208Z,14.32
2022-10-18T08:49:49.221Z,13.82
2022-10-18T08:52:48.180Z,11.55
2022-10-18T08:55:42.244Z,11.63
2022-10-18T08:58:51.231Z,10.82
2022-10-18T09:01:30.568Z,11.10
2022-10-18T09:04:26.829Z,10.63
2022-10-18T09:07:10.864Z,8.32
2022-10-18T09:09:52.280Z,7.40
2022-10-18T09:12:49.197Z,7.40
2022-10-18T09:15:31.687Z,7.63
2022-10-18T09:18:21.194Z,7.57
2022-10-18T09:20:58.807Z,6.68
2022-10-18T09:23:41.522Z,5.45
2022-10-18T10:29:51.571Z,2.13
2022-10-18T10:32:22.267Z,1.80
2022-10-18T10:34:51.187Z,1.77
2022-10-18T10:37:41.355Z,2.30
2022-10-18T10:40:23.124Z,2.33
2022-10-18T10:43:36.514Z,2.28
2022-10-18T10:46:10.016Z,2.05
2022-10-18T10:49:39.744Z,2.65
2022-10-18T10:52:30.223Z,2.03
2022-10-18T10:55:06.131Z,1.90
2022-10-18T10:57:47.491Z,2.40
2022-10-18T11:00:39.444Z,2.20
2022-10-18T11:03:30.980Z,2.45
2022-10-18T11:06:01.102Z,2.13
2022-10-18T11:08:34.503Z,1.98
2022-10-18T11:11:15.337Z,2.25
2022-10-18T11:13:56.975Z,2.22
